sensor_id;sensor_type;location;lat;lon;timestamp;pressure;altitude;pressure_sealevel;temperature;humidity
33432;BME280;35187;31.882;34.828;2023-04-28T00:02:20;100220;;;21;35
33432;BME280;35187;31.882;34.828;2023-04-28T00:04:49;100220;;;21;35
33432;BME280;35187;31.882;34.828;2023-04-28T00:07:18;100220;;;21;35
33432;BME280;35187;31.882;34.828;2023-04-28T00:09:46;100220;;;21;35
33432;BME280;35187;31.882;34.828;2023-04-28T00:12:15;100220;;;21;35
33432;BME280;35187;31.882;34.828;2023-04-28T00:14:44;100220;;;21;35
33432;BME280;35187;31.882;34.828;2023-04-28T00:17:13;100220;;;21;35
33432;BME280;35187;31.882;34.828;2023-04-28T00:19:42;100220;;;21;35
33432;BME280;35187;31.882;34.828;2023-04-28T00:22:10;100230;;;20;35
33432;BME280;35187;31.882;34.828;2023-04-28T00:24:39;100230;;;21;35
33432;BME280;35187;31.882;34.828;2023-04-28T00:27:08;100240;;;21;35
33432;BME280;35187;31.882;34.828;2023-04-28T00:29:37;100240;;;21;35
33432;BME280;35187;31.882;34.828;2023-04-28T00:32:05;100240;;;21;35
33432;BME280;35187;31.882;34.828;2023-04-28T00:34:34;100240;;;21;35
33432;BME280;35187;31.882;34.828;2023-04-28T00:37:03;100240;;;21;35
33432;BME280;35187;31.882;34.828;2023-04-28T00:39:32;100240;;;21;35
33432;BME280;35187;31.882;34.828;2023-04-28T00:42:00;100240;;;21;35
33432;BME280;35187;31.882;34.828;2023-04-28T00:44:29;100240;;;21;35
33432;BME280;35187;31.882;34.828;2023-04-28T00:46:58;100240;;;21;35
33432;BME280;35187;31.882;34.828;2023-04-28T00:49:27;100240;;;21;35
33432;BME280;35187;31.882;34.828;2023-04-28T00:51:57;100250;;;21;36
33432;BME280;35187;31.882;34.828;2023-04-28T00:54:26;100250;;;21;36
33432;BME280;35187;31.882;34.828;2023-04-28T00:56:54;100250;;;21;36
33432;BME280;35187;31.882;34.828;2023-04-28T00:59:23;100250;;;21;35
33432;BME280;35187;31.882;34.828;2023-04-28T01:01:52;100250;;;21;35
33432;BME280;35187;31.882;34.828;2023-04-28T01:04:22;100260;;;21;35
33432;BME280;35187;31.882;34.828;2023-04-28T01:06:52;100260;;;20;35
33432;BME280;35187;31.882;34.828;2023-04-28T01:09:22;100270;;;20;35
33432;BME280;35187;31.882;34.828;2023-04-28T01:11:50;100280;;;20;36
33432;BME280;35187;31.882;34.828;2023-04-28T01:14:19;100270;;;20;35
33432;BME280;35187;31.882;34.828;2023-04-28T01:16:48;100270;;;21;35
33432;BME280;35187;31.882;34.828;2023-04-28T01:19:20;100270;;;20;35
33432;BME280;35187;31.882;34.828;2023-04-28T01:21:49;100270;;;20;35
33432;BME280;35187;31.882;34.828;2023-04-28T01:24:18;100280;;;20;35
33432;BME280;35187;31.882;34.828;2023-04-28T01:26:47;100280;;;21;35
33432;BME280;35187;31.882;34.828;2023-04-28T01:29:16;100270;;;21;35
33432;BME280;35187;31.882;34.828;2023-04-28T01:31:44;100280;;;21;35
33432;BME280;35187;31.882;34.828;2023-04-28T01:34:13;100270;;;20;35
33432;BME280;35187;31.882;34.828;2023-04-28T01:36:42;100280;;;20;35
33432;BME280;35187;31.882;34.828;2023-04-28T01:39:11;100280;;;20;35
33432;BME280;35187;31.882;34.828;2023-04-28T01:41:39;100280;;;20;35
33432;BME280;35187;31.882;34.828;2023-04-28T01:44:08;100280;;;20;35
33432;BME280;35187;31.882;34.828;2023-04-28T01:46:37;100280;;;20;35
33432;BME280;35187;31.882;34.828;2023-04-28T01:49:06;100280;;;21;35
33432;BME280;35187;31.882;34.828;2023-04-28T01:51:34;100280;;;21;35
33432;BME280;35187;31.882;34.828;2023-04-28T01:54:03;100270;;;21;35
33432;BME280;35187;31.882;34.828;2023-04-28T01:56:32;100270;;;20;35
33432;BME280;35187;31.882;34.828;2023-04-28T01:59:01;100260;;;20;35
33432;BME280;35187;31.882;34.828;2023-04-28T02:01:29;100260;;;20;35
33432;BME280;35187;31.882;34.828;2023-04-28T02:03:58;100260;;;20;35
33432;BME280;35187;31.882;34.828;2023-04-28T02:06:27;100260;;;20;35
33432;BME280;35187;31.882;34.828;2023-04-28T02:08:56;100270;;;20;35
33432;BME280;35187;31.882;34.828;2023-04-28T02:11:24;100270;;;20;35
33432;BME280;35187;31.882;34.828;2023-04-28T02:13:53;100270;;;20;35
33432;BME280;35187;31.882;34.828;2023-04-28T02:16:22;100270;;;21;35
33432;BME280;35187;31.882;34.828;2023-04-28T02:18:51;100270;;;20;35
33432;BME280;35187;31.882;34.828;2023-04-28T02:21:19;100270;;;20;35
33432;BME280;35187;31.882;34.828;2023-04-28T02:23:48;100280;;;20;35
33432;BME280;35187;31.882;34.828;2023-04-28T02:26:17;100280;;;20;36
33432;BME280;35187;31.882;34.828;2023-04-28T02:28:46;100280;;;20;36
33432;BME280;35187;31.882;34.828;2023-04-28T02:31:15;100280;;;21;36
33432;BME280;35187;31.882;34.828;2023-04-28T02:33:44;100270;;;20;36
33432;BME280;35187;31.882;34.828;2023-04-28T02:36:13;100270;;;20;36
33432;BME280;35187;31.882;34.828;2023-04-28T02:38:41;100280;;;20;36
33432;BME280;35187;31.882;34.828;2023-04-28T02:41:10;100280;;;21;36
33432;BME280;35187;31.882;34.828;2023-04-28T02:43:39;100280;;;20;36
33432;BME280;35187;31.882;34.828;2023-04-28T02:46:08;100280;;;20;36
33432;BME280;35187;31.882;34.828;2023-04-28T02:48:37;100280;;;20;36
33432;BME280;35187;31.882;34.828;2023-04-28T02:51:05;100280;;;20;36
33432;BME280;35187;31.882;34.828;2023-04-28T02:53:34;100280;;;20;36
33432;BME280;35187;31.882;34.828;2023-04-28T02:56:03;100280;;;21;36
33432;BME280;35187;31.882;34.828;2023-04-28T02:58:32;100290;;;21;37
33432;BME280;35187;31.882;34.828;2023-04-28T03:01:01;100300;;;21;37
33432;BME280;35187;31.882;34.828;2023-04-28T03:03:29;100300;;;20;37
33432;BME280;35187;31.882;34.828;2023-04-28T03:05:58;100300;;;20;37
33432;BME280;35187;31.882;34.828;2023-04-28T03:08:27;100300;;;20;37
33432;BME280;35187;31.882;34.828;2023-04-28T03:10:56;100300;;;21;37
33432;BME280;35187;31.882;34.828;2023-04-28T03:13:24;100310;;;21;37
33432;BME280;35187;31.882;34.828;2023-04-28T03:15:53;100310;;;20;37
33432;BME280;35187;31.882;34.828;2023-04-28T03:18:22;100310;;;21;37
33432;BME280;35187;31.882;34.828;2023-04-28T03:20:51;100320;;;20;37
33432;BME280;35187;31.882;34.828;2023-04-28T03:23:20;100310;;;21;38
33432;BME280;35187;31.882;34.828;2023-04-28T03:25:48;100320;;;20;38
33432;BME280;35187;31.882;34.828;2023-04-28T03:28:17;100320;;;21;38
33432;BME280;35187;31.882;34.828;2023-04-28T03:30:46;100320;;;21;38
33432;BME280;35187;31.882;34.828;2023-04-28T03:33:15;100320;;;20;38
33432;BME280;35187;31.882;34.828;2023-04-28T03:35:43;100320;;;20;38
33432;BME280;35187;31.882;34.828;2023-04-28T03:38:12;100320;;;20;38
33432;BME280;35187;31.882;34.828;2023-04-28T03:40:41;100330;;;20;38
33432;BME280;35187;31.882;34.828;2023-04-28T03:43:10;100330;;;20;38
33432;BME280;35187;31.882;34.828;2023-04-28T03:45:39;100340;;;20;38
33432;BME280;35187;31.882;34.828;2023-04-28T03:48:08;100340;;;20;38
33432;BME280;35187;31.882;34.828;2023-04-28T03:50:37;100340;;;20;38
33432;BME280;35187;31.882;34.828;2023-04-28T03:53:06;100340;;;20;38
33432;BME280;35187;31.882;34.828;2023-04-28T03:55:35;100340;;;20;39
33432;BME280;35187;31.882;34.828;2023-04-28T03:58:04;100350;;;20;39
33432;BME280;35187;31.882;34.828;2023-04-28T04:00:32;100350;;;20;39
33432;BME280;35187;31.882;34.828;2023-04-28T04:03:01;100350;;;20;39
33432;BME280;35187;31.882;34.828;2023-04-28T04:05:30;100360;;;20;39
33432;BME280;35187;31.882;34.828;2023-04-28T04:07:59;100360;;;20;39
33432;BME280;35187;31.882;34.828;2023-04-28T04:10:27;100360;;;20;40
33432;BME280;35187;31.882;34.828;2023-04-28T04:12:56;100360;;;20;41
33432;BME280;35187;31.882;34.828;2023-04-28T04:15:25;100360;;;20;41
33432;BME280;35187;31.882;34.828;2023-04-28T04:17:54;100370;;;20;41
33432;BME280;35187;31.882;34.828;2023-04-28T04:20:23;100370;;;20;40
33432;BME280;35187;31.882;34.828;2023-04-28T04:22:51;100370;;;20;40
33432;BME280;35187;31.882;34.828;2023-04-28T04:25:20;100380;;;21;40
33432;BME280;35187;31.882;34.828;2023-04-28T04:27:49;100380;;;20;40
33432;BME280;35187;31.882;34.828;2023-04-28T04:30:18;100380;;;20;40
33432;BME280;35187;31.882;34.828;2023-04-28T04:32:46;100380;;;21;39
33432;BME280;35187;31.882;34.828;2023-04-28T04:35:15;100380;;;20;39
33432;BME280;35187;31.882;34.828;2023-04-28T04:37:44;100380;;;21;39
33432;BME280;35187;31.882;34.828;2023-04-28T04:40:13;100390;;;21;39
33432;BME280;35187;31.882;34.828;2023-04-28T04:42:41;100390;;;21;39
33432;BME280;35187;31.882;34.828;2023-04-28T04:45:10;100390;;;21;39
33432;BME280;35187;31.882;34.828;2023-04-28T04:47:39;100390;;;21;39
33432;BME280;35187;31.882;34.828;2023-04-28T04:50:11;100390;;;21;39
33432;BME280;35187;31.882;34.828;2023-04-28T04:52:40;100390;;;21;39
33432;BME280;35187;31.882;34.828;2023-04-28T04:55:09;100390;;;21;39
33432;BME280;35187;31.882;34.828;2023-04-28T04:57:37;100390;;;21;39
33432;BME280;35187;31.882;34.828;2023-04-28T05:00:07;100400;;;21;39
33432;BME280;35187;31.882;34.828;2023-04-28T05:02:36;100400;;;21;39
33432;BME280;35187;31.882;34.828;2023-04-28T05:05:05;100400;;;21;39
33432;BME280;35187;31.882;34.828;2023-04-28T05:07:34;100400;;;21;40
33432;BME280;35187;31.882;34.828;2023-04-28T05:10:03;100390;;;21;39
33432;BME280;35187;31.882;34.828;2023-04-28T05:12:32;100400;;;21;39
33432;BME280;35187;31.882;34.828;2023-04-28T05:15:01;100390;;;21;39
33432;BME280;35187;31.882;34.828;2023-04-28T05:17:30;100400;;;21;39
33432;BME280;35187;31.882;34.828;2023-04-28T05:19:58;100400;;;21;39
33432;BME280;35187;31.882;34.828;2023-04-28T05:22:28;100400;;;21;39
33432;BME280;35187;31.882;34.828;2023-04-28T05:24:56;100400;;;21;38
33432;BME280;35187;31.882;34.828;2023-04-28T05:27:25;100400;;;21;38
33432;BME280;35187;31.882;34.828;2023-04-28T05:29:54;100400;;;21;38
33432;BME280;35187;31.882;34.828;2023-04-28T05:32:23;100400;;;21;38
33432;BME280;35187;31.882;34.828;2023-04-28T05:34:52;100400;;;21;38
33432;BME280;35187;31.882;34.828;2023-04-28T05:37:20;100400;;;21;38
33432;BME280;35187;31.882;34.828;2023-04-28T05:39:49;100400;;;21;38
33432;BME280;35187;31.882;34.828;2023-04-28T05:42:18;100400;;;21;39
33432;BME280;35187;31.882;34.828;2023-04-28T05:44:47;100400;;;21;39
33432;BME280;35187;31.882;34.828;2023-04-28T05:47:16;100400;;;21;40
33432;BME280;35187;31.882;34.828;2023-04-28T05:49:44;100400;;;21;40
33432;BME280;35187;31.882;34.828;2023-04-28T05:52:13;100400;;;21;39
33432;BME280;35187;31.882;34.828;2023-04-28T05:54:42;100410;;;21;39
33432;BME280;35187;31.882;34.828;2023-04-28T05:57:10;100400;;;21;39
33432;BME280;35187;31.882;34.828;2023-04-28T05:59:39;100410;;;21;40
33432;BME280;35187;31.882;34.828;2023-04-28T06:02:08;100410;;;21;41
33432;BME280;35187;31.882;34.828;2023-04-28T06:04:38;100410;;;21;43
33432;BME280;35187;31.882;34.828;2023-04-28T06:07:07;100410;;;21;43
33432;BME280;35187;31.882;34.828;2023-04-28T06:09:36;100420;;;21;43
33432;BME280;35187;31.882;34.828;2023-04-28T06:12:05;100420;;;21;41
33432;BME280;35187;31.882;34.828;2023-04-28T06:14:34;100420;;;21;40
33432;BME280;35187;31.882;34.828;2023-04-28T06:17:03;100420;;;21;40
33432;BME280;35187;31.882;34.828;2023-04-28T06:19:32;100420;;;21;39
33432;BME280;35187;31.882;34.828;2023-04-28T06:22:01;100430;;;21;39
33432;BME280;35187;31.882;34.828;2023-04-28T06:24:29;100430;;;21;39
33432;BME280;35187;31.882;34.828;2023-04-28T06:26:58;100430;;;21;40
33432;BME280;35187;31.882;34.828;2023-04-28T06:29:27;100440;;;21;40
33432;BME280;35187;31.882;34.828;2023-04-28T06:31:56;100440;;;21;40
33432;BME280;35187;31.882;34.828;2023-04-28T06:34:25;100440;;;21;40
33432;BME280;35187;31.882;34.828;2023-04-28T06:36:53;100440;;;21;40
33432;BME280;35187;31.882;34.828;2023-04-28T06:39:22;100450;;;21;40
33432;BME280;35187;31.882;34.828;2023-04-28T06:41:51;100450;;;21;40
33432;BME280;35187;31.882;34.828;2023-04-28T06:44:20;100440;;;21;40
33432;BME280;35187;31.882;34.828;2023-04-28T06:46:49;100440;;;21;40
33432;BME280;35187;31.882;34.828;2023-04-28T06:49:17;100450;;;21;40
33432;BME280;35187;31.882;34.828;2023-04-28T06:51:46;100450;;;21;40
33432;BME280;35187;31.882;34.828;2023-04-28T06:54:15;100450;;;21;40
33432;BME280;35187;31.882;34.828;2023-04-28T06:56:44;100450;;;21;40
33432;BME280;35187;31.882;34.828;2023-04-28T06:59:13;100460;;;21;40
33432;BME280;35187;31.882;34.828;2023-04-28T07:01:41;100450;;;21;40
33432;BME280;35187;31.882;34.828;2023-04-28T07:04:10;100450;;;21;40
33432;BME280;35187;31.882;34.828;2023-04-28T07:06:39;100460;;;21;40
33432;BME280;35187;31.882;34.828;2023-04-28T07:09:08;100460;;;21;40
33432;BME280;35187;31.882;34.828;2023-04-28T07:11:36;100460;;;21;40
33432;BME280;35187;31.882;34.828;2023-04-28T07:14:05;100470;;;21;40
33432;BME280;35187;31.882;34.828;2023-04-28T07:16:34;100460;;;21;40
33432;BME280;35187;31.882;34.828;2023-04-28T07:19:03;100470;;;21;40
33432;BME280;35187;31.882;34.828;2023-04-28T07:21:32;100470;;;21;40
33432;BME280;35187;31.882;34.828;2023-04-28T07:24:01;100470;;;21;40
33432;BME280;35187;31.882;34.828;2023-04-28T07:26:29;100470;;;21;40
33432;BME280;35187;31.882;34.828;2023-04-28T07:29:00;100470;;;21;40
33432;BME280;35187;31.882;34.828;2023-04-28T07:31:29;100470;;;21;40
33432;BME280;35187;31.882;34.828;2023-04-28T07:33:58;100460;;;21;40
33432;BME280;35187;31.882;34.828;2023-04-28T07:36:27;100470;;;21;40
33432;BME280;35187;31.882;34.828;2023-04-28T07:38:56;100470;;;21;40
33432;BME280;35187;31.882;34.828;2023-04-28T07:41:25;100470;;;21;40
33432;BME280;35187;31.882;34.828;2023-04-28T07:43:54;100460;;;21;40
33432;BME280;35187;31.882;34.828;2023-04-28T07:46:23;100470;;;21;40
33432;BME280;35187;31.882;34.828;2023-04-28T07:48:52;100460;;;21;40
33432;BME280;35187;31.882;34.828;2023-04-28T07:51:21;100470;;;21;41
33432;BME280;35187;31.882;34.828;2023-04-28T07:53:50;100470;;;21;41
33432;BME280;35187;31.882;34.828;2023-04-28T07:56:19;100470;;;21;41
33432;BME280;35187;31.882;34.828;2023-04-28T07:58:48;100470;;;21;41
33432;BME280;35187;31.882;34.828;2023-04-28T08:01:17;100470;;;21;41
33432;BME280;35187;31.882;34.828;2023-04-28T08:03:45;100470;;;21;41
33432;BME280;35187;31.882;34.828;2023-04-28T08:06:14;100470;;;21;41
33432;BME280;35187;31.882;34.828;2023-04-28T08:08:43;100470;;;21;41
33432;BME280;35187;31.882;34.828;2023-04-28T08:11:12;100470;;;21;41
33432;BME280;35187;31.882;34.828;2023-04-28T08:13:41;100470;;;21;41
33432;BME280;35187;31.882;34.828;2023-04-28T08:16:09;100470;;;21;41
33432;BME280;35187;31.882;34.828;2023-04-28T08:18:38;100480;;;21;41
33432;BME280;35187;31.882;34.828;2023-04-28T08:21:07;100470;;;21;41
33432;BME280;35187;31.882;34.828;2023-04-28T08:23:36;100470;;;21;41
33432;BME280;35187;31.882;34.828;2023-04-28T08:26:05;100470;;;21;41
33432;BME280;35187;31.882;34.828;2023-04-28T08:28:34;100480;;;21;41
33432;BME280;35187;31.882;34.828;2023-04-28T08:31:02;100470;;;21;41
33432;BME280;35187;31.882;34.828;2023-04-28T08:33:31;100480;;;21;41
33432;BME280;35187;31.882;34.828;2023-04-28T08:36:00;100470;;;21;41
33432;BME280;35187;31.882;34.828;2023-04-28T08:38:29;100470;;;21;41
33432;BME280;35187;31.882;34.828;2023-04-28T08:40:57;100460;;;21;41
33432;BME280;35187;31.882;34.828;2023-04-28T08:43:26;100470;;;21;41
33432;BME280;35187;31.882;34.828;2023-04-28T08:45:55;100460;;;21;41
33432;BME280;35187;31.882;34.828;2023-04-28T08:48:25;100470;;;21;41
33432;BME280;35187;31.882;34.828;2023-04-28T08:50:54;100460;;;21;42
33432;BME280;35187;31.882;34.828;2023-04-28T08:53:25;100470;;;21;42
33432;BME280;35187;31.882;34.828;2023-04-28T08:55:56;100470;;;21;42
33432;BME280;35187;31.882;34.828;2023-04-28T08:58:26;100470;;;21;41
33432;BME280;35187;31.882;34.828;2023-04-28T09:00:54;100470;;;21;41
33432;BME280;35187;31.882;34.828;2023-04-28T09:03:23;100470;;;21;41
33432;BME280;35187;31.882;34.828;2023-04-28T09:05:54;100470;;;21;41
33432;BME280;35187;31.882;34.828;2023-04-28T09:08:22;100470;;;21;41
33432;BME280;35187;31.882;34.828;2023-04-28T09:11:05;100470;;;21;41
33432;BME280;35187;31.882;34.828;2023-04-28T09:13:34;100470;;;21;41
33432;BME280;35187;31.882;34.828;2023-04-28T09:16:04;100470;;;21;40
33432;BME280;35187;31.882;34.828;2023-04-28T09:18:33;100470;;;21;40
33432;BME280;35187;31.882;34.828;2023-04-28T09:21:04;100470;;;21;40
33432;BME280;35187;31.882;34.828;2023-04-28T09:23:34;100480;;;21;40
33432;BME280;35187;31.882;34.828;2023-04-28T09:26:04;100480;;;21;40
33432;BME280;35187;31.882;34.828;2023-04-28T09:28:34;100480;;;21;40
33432;BME280;35187;31.882;34.828;2023-04-28T09:31:03;100480;;;21;39
33432;BME280;35187;31.882;34.828;2023-04-28T09:33:32;100480;;;21;39
33432;BME280;35187;31.882;34.828;2023-04-28T09:36:01;100480;;;21;39
33432;BME280;35187;31.882;34.828;2023-04-28T09:38:30;100490;;;21;38
33432;BME280;35187;31.882;34.828;2023-04-28T09:41:01;100480;;;21;39
33432;BME280;35187;31.882;34.828;2023-04-28T09:43:31;100480;;;21;37
33432;BME280;35187;31.882;34.828;2023-04-28T09:46:01;100470;;;21;37
33432;BME280;35187;31.882;34.828;2023-04-28T09:48:32;100480;;;21;37
33432;BME280;35187;31.882;34.828;2023-04-28T09:51:02;100480;;;21;37
33432;BME280;35187;31.882;34.828;2023-04-28T09:53:32;100480;;;21;37
33432;BME280;35187;31.882;34.828;2023-04-28T09:56:02;100470;;;21;37
33432;BME280;35187;31.882;34.828;2023-04-28T09:58:33;100470;;;21;37
33432;BME280;35187;31.882;34.828;2023-04-28T10:01:06;100460;;;21;36
33432;BME280;35187;31.882;34.828;2023-04-28T10:03:38;100470;;;21;36
33432;BME280;35187;31.882;34.828;2023-04-28T10:06:07;100470;;;21;35
33432;BME280;35187;31.882;34.828;2023-04-28T10:08:37;100470;;;21;36
33432;BME280;35187;31.882;34.828;2023-04-28T10:11:05;100470;;;21;36
33432;BME280;35187;31.882;34.828;2023-04-28T10:13:35;100470;;;21;36
33432;BME280;35187;31.882;34.828;2023-04-28T10:16:05;100460;;;21;36
33432;BME280;35187;31.882;34.828;2023-04-28T10:18:36;100470;;;21;36
33432;BME280;35187;31.882;34.828;2023-04-28T10:21:05;100470;;;21;36
33432;BME280;35187;31.882;34.828;2023-04-28T10:23:58;100480;;;21;38
33432;BME280;35187;31.882;34.828;2023-04-28T10:27:05;100470;;;21;36
33432;BME280;35187;31.882;34.828;2023-04-28T10:29:35;100480;;;21;36
33432;BME280;35187;31.882;34.828;2023-04-28T10:32:21;100480;;;21;38
33432;BME280;35187;31.882;34.828;2023-04-28T10:34:51;100480;;;21;38
33432;BME280;35187;31.882;34.828;2023-04-28T10:37:20;100490;;;21;38
33432;BME280;35187;31.882;34.828;2023-04-28T10:40:31;100480;;;21;38
33432;BME280;35187;31.882;34.828;2023-04-28T10:43:00;100490;;;21;38
33432;BME280;35187;31.882;34.828;2023-04-28T10:46:12;100490;;;21;37
33432;BME280;35187;31.882;34.828;2023-04-28T10:48:57;100490;;;21;36
33432;BME280;35187;31.882;34.828;2023-04-28T10:51:30;100480;;;21;37
33432;BME280;35187;31.882;34.828;2023-04-28T10:54:16;100490;;;21;38
33432;BME280;35187;31.882;34.828;2023-04-28T10:57:19;100500;;;21;38
33432;BME280;35187;31.882;34.828;2023-04-28T10:59:49;100500;;;21;38
33432;BME280;35187;31.882;34.828;2023-04-28T11:02:37;100500;;;21;37
33432;BME280;35187;31.882;34.828;2023-04-28T11:05:15;100500;;;21;38
33432;BME280;35187;31.882;34.828;2023-04-28T11:08:30;100500;;;21;38
33432;BME280;35187;31.882;34.828;2023-04-28T11:11:16;100490;;;21;38
33432;BME280;35187;31.882;34.828;2023-04-28T11:13:45;100500;;;21;38
33432;BME280;35187;31.882;34.828;2023-04-28T11:16:16;100500;;;21;38
33432;BME280;35187;31.882;34.828;2023-04-28T11:18:49;100490;;;21;38
33432;BME280;35187;31.882;34.828;2023-04-28T11:21:19;100490;;;21;38
33432;BME280;35187;31.882;34.828;2023-04-28T11:23:48;100500;;;21;38
33432;BME280;35187;31.882;34.828;2023-04-28T11:26:18;100490;;;21;38
33432;BME280;35187;31.882;34.828;2023-04-28T11:28:48;100500;;;21;38
33432;BME280;35187;31.882;34.828;2023-04-28T11:31:18;100490;;;21;37
33432;BME280;35187;31.882;34.828;2023-04-28T11:33:50;100490;;;21;36
33432;BME280;35187;31.882;34.828;2023-04-28T11:36:29;100480;;;21;38
33432;BME280;35187;31.882;34.828;2023-04-28T11:38:59;100480;;;21;37
33432;BME280;35187;31.882;34.828;2023-04-28T11:41:27;100480;;;21;37
33432;BME280;35187;31.882;34.828;2023-04-28T11:43:57;100480;;;21;38
33432;BME280;35187;31.882;34.828;2023-04-28T11:46:26;100480;;;21;38
33432;BME280;35187;31.882;34.828;2023-04-28T11:49:05;100480;;;21;37
33432;BME280;35187;31.882;34.828;2023-04-28T11:51:36;100480;;;21;37
33432;BME280;35187;31.882;34.828;2023-04-28T11:54:06;100470;;;21;38
33432;BME280;35187;31.882;34.828;2023-04-28T11:56:37;100480;;;21;38
33432;BME280;35187;31.882;34.828;2023-04-28T11:59:07;100480;;;21;38
33432;BME280;35187;31.882;34.828;2023-04-28T12:01:45;100480;;;21;37
33432;BME280;35187;31.882;34.828;2023-04-28T12:04:26;100480;;;21;37
33432;BME280;35187;31.882;34.828;2023-04-28T12:07:01;100480;;;21;38
33432;BME280;35187;31.882;34.828;2023-04-28T12:09:31;100480;;;21;38
33432;BME280;35187;31.882;34.828;2023-04-28T12:12:01;100480;;;21;38
33432;BME280;35187;31.882;34.828;2023-04-28T12:14:31;100480;;;21;38
33432;BME280;35187;31.882;34.828;2023-04-28T12:17:00;100480;;;21;37
33432;BME280;35187;31.882;34.828;2023-04-28T12:19:29;100480;;;21;38
33432;BME280;35187;31.882;34.828;2023-04-28T12:22:10;100490;;;21;38
33432;BME280;35187;31.882;34.828;2023-04-28T12:24:38;100490;;;21;38
33432;BME280;35187;31.882;34.828;2023-04-28T12:27:23;100490;;;21;37
33432;BME280;35187;31.882;34.828;2023-04-28T12:29:52;100490;;;21;36
33432;BME280;35187;31.882;34.828;2023-04-28T12:32:36;100490;;;21;36
33432;BME280;35187;31.882;34.828;2023-04-28T12:35:06;100490;;;21;36
33432;BME280;35187;31.882;34.828;2023-04-28T12:37:35;100490;;;21;38
33432;BME280;35187;31.882;34.828;2023-04-28T12:40:05;100490;;;21;38
33432;BME280;35187;31.882;34.828;2023-04-28T12:42:34;100490;;;21;37
33432;BME280;35187;31.882;34.828;2023-04-28T12:45:06;100480;;;21;38
33432;BME280;35187;31.882;34.828;2023-04-28T12:47:36;100490;;;21;38
33432;BME280;35187;31.882;34.828;2023-04-28T12:50:05;100490;;;21;37
33432;BME280;35187;31.882;34.828;2023-04-28T12:52:34;100480;;;21;37
33432;BME280;35187;31.882;34.828;2023-04-28T12:55:04;100490;;;21;38
33432;BME280;35187;31.882;34.828;2023-04-28T12:57:33;100480;;;21;38
33432;BME280;35187;31.882;34.828;2023-04-28T13:00:02;100480;;;21;38
33432;BME280;35187;31.882;34.828;2023-04-28T13:02:31;100480;;;21;38
33432;BME280;35187;31.882;34.828;2023-04-28T13:05:00;100480;;;21;38
33432;BME280;35187;31.882;34.828;2023-04-28T13:07:28;100490;;;21;38
33432;BME280;35187;31.882;34.828;2023-04-28T13:09:57;100480;;;21;38
33432;BME280;35187;31.882;34.828;2023-04-28T13:12:26;100480;;;21;38
33432;BME280;35187;31.882;34.828;2023-04-28T13:14:58;100470;;;21;37
33432;BME280;35187;31.882;34.828;2023-04-28T13:17:29;100470;;;21;38
33432;BME280;35187;31.882;34.828;2023-04-28T13:19:57;100480;;;21;37
33432;BME280;35187;31.882;34.828;2023-04-28T13:22:26;100480;;;21;37
33432;BME280;35187;31.882;34.828;2023-04-28T13:24:55;100480;;;21;36
33432;BME280;35187;31.882;34.828;2023-04-28T13:27:25;100480;;;21;36
33432;BME280;35187;31.882;34.828;2023-04-28T13:30:01;100480;;;21;36
33432;BME280;35187;31.882;34.828;2023-04-28T13:32:30;100480;;;21;36
33432;BME280;35187;31.882;34.828;2023-04-28T13:34:59;100480;;;21;36
33432;BME280;35187;31.882;34.828;2023-04-28T13:37:28;100480;;;21;36
33432;BME280;35187;31.882;34.828;2023-04-28T13:39:56;100480;;;21;36
33432;BME280;35187;31.882;34.828;2023-04-28T13:42:25;100480;;;21;36
33432;BME280;35187;31.882;34.828;2023-04-28T13:44:54;100490;;;21;36
33432;BME280;35187;31.882;34.828;2023-04-28T13:47:22;100490;;;22;36
33432;BME280;35187;31.882;34.828;2023-04-28T13:49:51;100490;;;22;36
33432;BME280;35187;31.882;34.828;2023-04-28T13:52:21;100490;;;22;38
33432;BME280;35187;31.882;34.828;2023-04-28T13:54:50;100500;;;21;39
33432;BME280;35187;31.882;34.828;2023-04-28T13:57:19;100500;;;21;40
33432;BME280;35187;31.882;34.828;2023-04-28T13:59:48;100500;;;22;40
33432;BME280;35187;31.882;34.828;2023-04-28T14:02:16;100500;;;22;40
33432;BME280;35187;31.882;34.828;2023-04-28T14:04:45;100500;;;22;41
33432;BME280;35187;31.882;34.828;2023-04-28T14:07:14;100490;;;22;40
33432;BME280;35187;31.882;34.828;2023-04-28T14:09:43;100490;;;22;38
33432;BME280;35187;31.882;34.828;2023-04-28T14:12:12;100500;;;22;38
33432;BME280;35187;31.882;34.828;2023-04-28T14:14:40;100490;;;22;37
33432;BME280;35187;31.882;34.828;2023-04-28T14:17:09;100490;;;22;37
33432;BME280;35187;31.882;34.828;2023-04-28T14:19:38;100500;;;22;36
33432;BME280;35187;31.882;34.828;2023-04-28T14:22:07;100490;;;22;35
33432;BME280;35187;31.882;34.828;2023-04-28T14:24:35;100500;;;22;35
33432;BME280;35187;31.882;34.828;2023-04-28T14:27:05;100490;;;22;35
33432;BME280;35187;31.882;34.828;2023-04-28T14:29:34;100500;;;22;35
33432;BME280;35187;31.882;34.828;2023-04-28T14:32:03;100490;;;23;35
33432;BME280;35187;31.882;34.828;2023-04-28T14:34:32;100500;;;23;35
33432;BME280;35187;31.882;34.828;2023-04-28T14:37:01;100500;;;23;35
33432;BME280;35187;31.882;34.828;2023-04-28T14:39:30;100500;;;23;35